createdAt,value
2018-05-09T00:02:26.716Z,3.77
2018-05-09T00:04:55.746Z,3.67
2018-05-09T00:07:24.028Z,3.60
2018-05-09T00:09:52.284Z,3.80
2018-05-09T00:12:20.531Z,3.20
2018-05-09T00:14:49.549Z,3.80
2018-05-09T00:17:17.788Z,3.43
2018-05-09T00:19:46.120Z,3.40
2018-05-09T00:22:14.361Z,3.83
2018-05-09T00:24:43.376Z,3.70
2018-05-09T00:27:11.671Z,3.77
2018-05-09T00:29:39.917Z,3.57
2018-05-09T00:32:08.240Z,3.30
2018-05-09T00:34:36.592Z,3.60
2018-05-09T00:37:05.322Z,3.60
2018-05-09T00:39:33.659Z,3.53
2018-05-09T00:42:01.904Z,3.23
2018-05-09T00:44:30.173Z,4.00
2018-05-09T00:46:59.200Z,3.90
2018-05-09T00:49:27.479Z,3.27
2018-05-09T00:51:55.719Z,3.40
2018-05-09T00:54:32.547Z,3.10
2018-05-09T00:57:00.800Z,3.87
2018-05-09T00:59:29.076Z,3.60
2018-05-09T01:01:57.352Z,3.70
2018-05-09T01:04:25.633Z,3.50
2018-05-09T01:06:53.880Z,3.30
2018-05-09T01:09:22.151Z,3.50
2018-05-09T01:11:50.451Z,3.47
2018-05-09T01:14:18.702Z,3.60
2018-05-09T01:16:46.961Z,3.73
2018-05-09T01:19:15.972Z,3.33
2018-05-09T01:21:44.229Z,3.70
2018-05-09T01:24:13.236Z,3.47
2018-05-09T01:26:41.502Z,3.60
2018-05-09T01:29:10.536Z,3.13
2018-05-09T01:31:40.339Z,3.37
2018-05-09T01:34:08.622Z,3.43
2018-05-09T01:36:36.898Z,3.23
2018-05-09T01:39:05.991Z,3.77
2018-05-09T01:41:34.255Z,3.10
2018-05-09T01:44:02.560Z,3.40
2018-05-09T01:46:30.825Z,3.07
2018-05-09T01:48:59.077Z,3.33
2018-05-09T01:51:27.373Z,3.27
2018-05-09T01:53:55.649Z,3.63
2018-05-09T01:56:23.921Z,3.43
2018-05-09T01:58:52.170Z,3.40
2018-05-09T02:01:20.468Z,3.40
2018-05-09T02:03:48.718Z,3.13
2018-05-09T02:06:16.969Z,3.73
2018-05-09T02:08:45.980Z,3.30
2018-05-09T02:11:14.289Z,3.10
2018-05-09T02:13:42.544Z,3.50
2018-05-09T02:16:10.802Z,3.40
2018-05-09T02:18:39.829Z,3.77
2018-05-09T02:21:08.085Z,3.10
2018-05-09T02:23:36.333Z,3.37
2018-05-09T02:26:05.373Z,3.57
2018-05-09T02:28:33.652Z,3.30
2018-05-09T02:31:02.045Z,3.50
2018-05-09T02:33:30.320Z,3.43
2018-05-09T02:35:58.621Z,2.97
2018-05-09T02:38:26.848Z,3.03
2018-05-09T02:40:55.103Z,3.10
2018-05-09T02:43:23.413Z,3.00
2018-05-09T02:45:51.684Z,3.27
2018-05-09T02:48:19.933Z,3.37
2018-05-09T02:50:48.187Z,3.23
2018-05-09T02:53:17.227Z,3.20
2018-05-09T02:55:45.505Z,2.93
2018-05-09T02:58:13.881Z,3.00
2018-05-09T03:00:42.160Z,2.87
2018-05-09T03:03:10.437Z,3.10
2018-05-09T03:05:38.684Z,3.50
2018-05-09T03:08:06.942Z,3.20
2018-05-09T03:10:35.948Z,3.10
2018-05-09T03:13:05.698Z,3.33
2018-05-09T03:15:33.924Z,3.97
2018-05-09T03:18:02.952Z,3.70
2018-05-09T03:20:31.240Z,3.70
2018-05-09T03:22:59.506Z,3.40
2018-05-09T03:25:27.760Z,3.87
2018-05-09T03:27:56.017Z,3.57
2018-05-09T03:30:25.032Z,3.63
2018-05-09T03:32:53.321Z,3.77
2018-05-09T03:35:21.560Z,3.57
2018-05-09T03:37:50.605Z,3.73
2018-05-09T03:40:18.882Z,3.90
2018-05-09T03:42:47.137Z,4.00
2018-05-09T03:45:15.416Z,4.17
2018-05-09T03:47:43.700Z,3.93
2018-05-09T03:50:11.964Z,3.73
2018-05-09T03:52:40.249Z,3.70
2018-05-09T03:55:08.515Z,4.77
2018-05-09T03:57:36.896Z,3.60
2018-05-09T04:00:05.136Z,4.17
2018-05-09T04:02:45.324Z,3.53
2018-05-09T04:05:25.485Z,3.80
2018-05-09T04:08:06.455Z,4.27
2018-05-09T04:10:34.704Z,4.20
2018-05-09T04:13:02.986Z,5.20
2018-05-09T04:15:31.280Z,4.70
2018-05-09T04:17:59.528Z,4.67
2018-05-09T04:20:27.836Z,4.30
2018-05-09T04:22:56.080Z,4.67
2018-05-09T04:25:24.384Z,4.63
2018-05-09T04:27:52.872Z,5.20
2018-05-09T04:30:21.101Z,5.60
2018-05-09T04:32:50.113Z,5.30
2018-05-09T04:35:18.433Z,4.67
2018-05-09T04:37:47.135Z,4.83
2018-05-09T04:40:15.373Z,4.77
2018-05-09T04:42:43.621Z,4.77
2018-05-09T04:45:11.881Z,5.33
2018-05-09T04:47:41.633Z,5.73
2018-05-09T04:50:09.884Z,5.27
2018-05-09T04:52:38.214Z,5.10
2018-05-09T04:55:06.441Z,5.23
2018-05-09T04:57:34.680Z,4.70
2018-05-09T05:00:03.698Z,5.30
2018-05-09T05:02:31.939Z,5.60
2018-05-09T05:05:00.283Z,5.73
2018-05-09T05:07:28.521Z,5.03
2018-05-09T05:09:56.789Z,5.33
2018-05-09T05:12:25.832Z,5.37
2018-05-09T05:14:54.202Z,5.40
2018-05-09T05:17:22.440Z,5.17
2018-05-09T05:19:50.695Z,5.47
2018-05-09T05:22:19.027Z,4.73
2018-05-09T05:24:47.285Z,6.17
2018-05-09T05:27:15.616Z,4.83
2018-05-09T05:29:43.831Z,5.27
2018-05-09T05:32:12.096Z,5.07
2018-05-09T05:34:41.128Z,6.03
2018-05-09T05:37:09.435Z,5.40
2018-05-09T05:39:37.700Z,6.03
2018-05-09T05:42:05.985Z,5.13
2018-05-09T05:44:34.320Z,5.87
2018-05-09T05:47:02.584Z,6.03
2018-05-09T05:49:30.839Z,6.60
2018-05-09T05:51:59.860Z,6.07
2018-05-09T05:54:28.109Z,5.97
2018-05-09T05:56:57.136Z,6.43
2018-05-09T05:59:25.384Z,6.00
2018-05-09T06:01:53.648Z,5.93
2018-05-09T06:04:22.687Z,6.40
2018-05-09T06:06:50.940Z,5.33
2018-05-09T06:09:19.229Z,5.50
2018-05-09T06:11:47.490Z,5.33
2018-05-09T06:14:15.731Z,5.20
2018-05-09T06:16:44.769Z,4.90
2018-05-09T06:19:13.016Z,5.53
2018-05-09T06:21:42.040Z,4.93
2018-05-09T06:24:10.370Z,5.17
2018-05-09T06:26:38.596Z,4.67
2018-05-09T06:29:06.846Z,4.80
2018-05-09T06:31:35.158Z,4.80
2018-05-09T06:34:03.419Z,4.70
2018-05-09T06:36:31.669Z,4.53
2018-05-09T06:39:00.336Z,4.87
2018-05-09T06:41:29.372Z,5.03
2018-05-09T06:43:57.609Z,5.30
2018-05-09T06:46:26.628Z,5.80
2018-05-09T06:48:54.870Z,5.60
2018-05-09T06:51:23.910Z,6.50
2018-05-09T06:53:52.148Z,6.30
2018-05-09T06:56:20.457Z,6.60
2018-05-09T06:58:48.701Z,7.50
2018-05-09T07:01:16.962Z,27.57
2018-05-09T07:03:46.009Z,6.03
2018-05-09T07:06:14.333Z,6.03
2018-05-09T07:08:42.548Z,5.87
2018-05-09T07:11:10.788Z,5.97
2018-05-09T07:13:39.804Z,5.63
2018-05-09T07:16:08.092Z,6.50
2018-05-09T07:18:36.354Z,6.00
2018-05-09T07:21:04.644Z,6.07
2018-05-09T07:23:32.904Z,6.13
2018-05-09T07:26:01.148Z,5.73
2018-05-09T07:28:30.168Z,5.73
2018-05-09T07:30:58.466Z,5.40
2018-05-09T07:33:26.737Z,5.20
2018-05-09T07:35:54.981Z,5.07
2018-05-09T07:38:24.002Z,5.13
2018-05-09T07:40:52.233Z,6.00
2018-05-09T07:43:21.253Z,6.07
2018-05-09T07:45:49.498Z,5.37
2018-05-09T07:48:17.765Z,5.20
2018-05-09T07:50:46.100Z,5.77
2018-05-09T07:53:14.376Z,6.37
2018-05-09T07:55:42.655Z,5.70
2018-05-09T07:58:10.909Z,5.87
2018-05-09T08:00:39.225Z,5.70
2018-05-09T08:03:07.577Z,5.83
2018-05-09T08:05:35.829Z,6.20
2018-05-09T08:08:04.132Z,6.53
2018-05-09T08:10:32.380Z,6.50
2018-05-09T08:13:00.684Z,6.47
2018-05-09T08:15:28.961Z,6.57
2018-05-09T08:17:57.258Z,6.37
2018-05-09T08:20:25.512Z,6.40
2018-05-09T08:22:53.789Z,6.17
2018-05-09T08:25:22.041Z,6.20
2018-05-09T08:27:50.280Z,7.03
2018-05-09T08:30:18.597Z,7.00
2018-05-09T08:32:46.809Z,7.03
2018-05-09T08:35:15.060Z,7.80
2018-05-09T08:37:43.313Z,7.57
2018-05-09T08:40:11.612Z,7.30
2018-05-09T08:42:39.856Z,7.27
2018-05-09T08:45:08.114Z,7.33
2018-05-09T08:47:36.441Z,7.53
2018-05-09T08:50:04.716Z,7.13
2018-05-09T08:52:33.717Z,7.80
2018-05-09T08:55:01.988Z,8.23
2018-05-09T08:57:30.237Z,8.70
2018-05-09T08:59:58.597Z,7.80
2018-05-09T09:02:27.616Z,7.53
2018-05-09T09:04:55.864Z,7.93
2018-05-09T09:07:25.782Z,8.90
2018-05-09T09:09:54.101Z,8.17
2018-05-09T09:12:22.407Z,7.87
2018-05-09T09:14:51.476Z,9.07
2018-05-09T09:17:19.728Z,8.57
2018-05-09T09:19:48.007Z,8.43
2018-05-09T09:22:16.248Z,8.37
2018-05-09T09:24:45.290Z,8.30
2018-05-09T09:27:13.565Z,8.07
2018-05-09T09:29:41.854Z,7.60
2018-05-09T09:32:10.126Z,7.77
2018-05-09T09:34:38.377Z,7.87
2018-05-09T09:37:06.660Z,7.67
2018-05-09T09:39:34.912Z,7.50
2018-05-09T09:42:03.166Z,7.43
2018-05-09T09:44:32.202Z,7.30
2018-05-09T09:47:00.440Z,7.43
2018-05-09T09:49:29.448Z,6.40
2018-05-09T09:51:57.748Z,7.17
2018-05-09T09:54:26.025Z,6.60
2018-05-09T09:56:54.301Z,7.63
2018-05-09T09:59:22.574Z,7.53
2018-05-09T10:01:50.824Z,7.70
2018-05-09T10:04:19.136Z,6.93
2018-05-09T10:06:47.381Z,6.53
2018-05-09T10:09:15.624Z,6.90
2018-05-09T10:11:43.952Z,6.43
2018-05-09T10:14:12.245Z,6.70
2018-05-09T10:16:40.511Z,6.97
2018-05-09T10:19:08.757Z,6.33
2018-05-09T10:21:37.004Z,6.13
2018-05-09T10:24:06.060Z,6.90
2018-05-09T10:26:34.316Z,5.90
2018-05-09T10:29:02.570Z,5.27
2018-05-09T10:31:30.902Z,5.73
2018-05-09T10:33:59.836Z,6.30
2018-05-09T10:36:28.137Z,4.83
2018-05-09T10:38:56.412Z,4.90
2018-05-09T10:41:24.689Z,5.90
2018-05-09T10:43:52.933Z,4.67
2018-05-09T10:46:22.061Z,5.13
2018-05-09T10:48:50.373Z,5.07
2018-05-09T10:51:18.925Z,5.40
2018-05-09T10:53:47.177Z,5.60
2018-05-09T10:56:15.432Z,5.50
2018-05-09T10:58:44.449Z,5.60
2018-05-09T11:01:12.710Z,4.80
2018-05-09T11:03:41.708Z,4.60
2018-05-09T11:06:10.019Z,4.10
2018-05-09T11:08:38.256Z,4.20
2018-05-09T11:11:06.533Z,4.30
2018-05-09T11:13:34.771Z,4.30
2018-05-09T11:16:03.013Z,4.50
2018-05-09T11:18:31.266Z,4.87
2018-05-09T11:20:59.552Z,4.77
2018-05-09T11:23:27.845Z,5.10
2018-05-09T11:25:56.084Z,4.57
2018-05-09T11:28:24.336Z,4.60
2018-05-09T11:30:53.350Z,4.97
2018-05-09T11:33:21.690Z,4.77
2018-05-09T11:35:49.909Z,5.10
2018-05-09T11:38:18.208Z,4.50
2018-05-09T11:40:46.472Z,4.90
2018-05-09T11:43:14.756Z,4.50
2018-05-09T11:45:43.003Z,4.60
2018-05-09T11:48:11.781Z,4.40
2018-05-09T11:50:40.805Z,4.93
2018-05-09T11:53:09.078Z,5.30
2018-05-09T11:55:37.365Z,4.97
2018-05-09T11:58:05.616Z,4.47
2018-05-09T12:00:33.852Z,4.90
2018-05-09T12:03:03.038Z,4.37
2018-05-09T12:05:31.320Z,4.03
2018-05-09T12:07:59.572Z,4.97
2018-05-09T12:10:27.864Z,4.70
2018-05-09T12:12:56.090Z,4.27
2018-05-09T12:15:24.332Z,5.13
2018-05-09T12:17:53.413Z,4.50
2018-05-09T12:20:21.640Z,4.60
2018-05-09T12:22:49.925Z,4.43
2018-05-09T12:25:18.175Z,4.40
2018-05-09T12:27:46.473Z,4.23
2018-05-09T12:30:14.709Z,4.20
2018-05-09T12:32:43.790Z,4.27
2018-05-09T12:35:11.988Z,4.13
2018-05-09T12:37:40.261Z,4.30
2018-05-09T12:40:09.273Z,4.30
2018-05-09T12:42:37.690Z,4.23
2018-05-09T12:45:05.829Z,4.60
2018-05-09T12:47:34.114Z,3.97
2018-05-09T12:50:02.386Z,4.17
2018-05-09T12:52:30.630Z,4.57
2018-05-09T12:54:59.696Z,4.60
2018-05-09T12:57:27.935Z,4.50
2018-05-09T12:59:56.184Z,3.80
2018-05-09T13:02:24.425Z,4.37
2018-05-09T13:04:52.674Z,4.40
2018-05-09T13:07:20.976Z,4.60
2018-05-09T13:09:49.209Z,4.40
2018-05-09T13:12:17.453Z,4.50
2018-05-09T13:14:46.480Z,4.53
2018-05-09T13:17:14.753Z,4.20
2018-05-09T13:19:43.140Z,4.60
2018-05-09T13:22:11.314Z,4.47
2018-05-09T13:24:39.572Z,4.67
2018-05-09T13:27:07.804Z,4.43
2018-05-09T13:29:36.147Z,4.70
2018-05-09T13:32:04.414Z,4.93
2018-05-09T13:34:32.680Z,4.60
2018-05-09T13:37:00.935Z,5.00
2018-05-09T13:39:29.193Z,4.57
2018-05-09T13:41:58.229Z,4.70
2018-05-09T13:44:26.488Z,4.47
2018-05-09T13:46:54.748Z,4.17
2018-05-09T13:49:23.776Z,4.07
2018-05-09T13:51:52.028Z,4.27
2018-05-09T13:54:20.328Z,5.00
2018-05-09T13:56:48.641Z,4.40
2018-05-09T13:59:16.876Z,4.60
2018-05-09T14:01:45.112Z,4.67
2018-05-09T14:04:14.152Z,5.87
2018-05-09T14:06:42.459Z,5.60
2018-05-09T14:09:10.677Z,6.03
2018-05-09T14:11:38.934Z,5.93
2018-05-09T14:14:07.982Z,6.60
2018-05-09T14:16:36.220Z,6.00
2018-05-09T14:19:04.473Z,5.73
2018-05-09T14:21:34.392Z,5.77
2018-05-09T14:24:03.409Z,6.03
2018-05-09T14:26:31.713Z,6.10
2018-05-09T14:28:59.956Z,5.97
2018-05-09T14:31:28.254Z,5.80
2018-05-09T14:33:56.499Z,5.50
2018-05-09T14:36:24.748Z,5.73
2018-05-09T14:38:54.136Z,5.50
2018-05-09T14:41:22.362Z,5.10
2018-05-09T14:43:50.600Z,5.20
2018-05-09T14:46:19.648Z,5.60
2018-05-09T14:48:47.930Z,5.77
2018-05-09T14:51:16.180Z,5.73
2018-05-09T14:53:44.463Z,5.63
2018-05-09T14:56:12.721Z,4.97
2018-05-09T14:58:40.971Z,4.67
2018-05-09T15:01:10.026Z,5.30
2018-05-09T15:03:39.208Z,5.13
2018-05-09T15:06:07.490Z,6.17
2018-05-09T15:08:35.815Z,5.17
2018-05-09T15:11:04.751Z,5.10
2018-05-09T15:13:33.033Z,5.23
2018-05-09T15:16:01.279Z,5.40
2018-05-09T15:18:29.514Z,5.30
2018-05-09T15:20:57.761Z,4.97
2018-05-09T15:23:26.081Z,5.20
2018-05-09T15:25:54.504Z,4.50
2018-05-09T15:28:22.754Z,3.90
2018-05-09T15:30:51.816Z,4.47
2018-05-09T15:33:20.152Z,4.57
2018-05-09T15:35:48.438Z,4.20
2018-05-09T15:38:16.709Z,4.87
2018-05-09T15:40:44.989Z,4.40
2018-05-09T15:43:13.257Z,4.37
2018-05-09T15:45:41.499Z,4.30
2018-05-09T15:48:10.624Z,4.37
2018-05-09T15:50:38.900Z,4.40
2018-05-09T15:53:07.150Z,4.70
2018-05-09T15:55:35.397Z,4.10
2018-05-09T15:58:03.640Z,3.47
2018-05-09T16:00:31.880Z,3.37
2018-05-09T16:03:00.135Z,3.50
2018-05-09T16:05:29.145Z,3.47
2018-05-09T16:07:58.377Z,3.27
2018-05-09T16:10:26.627Z,3.10
2018-05-09T16:12:54.925Z,3.67
2018-05-09T16:15:23.201Z,3.27
2018-05-09T16:17:51.482Z,3.37
2018-05-09T16:20:19.742Z,3.07
2018-05-09T16:22:47.990Z,3.03
2018-05-09T16:25:17.684Z,3.40
2018-05-09T16:27:46.728Z,3.30
2018-05-09T16:30:14.972Z,3.20
2018-05-09T16:32:43.219Z,3.30
2018-05-09T16:35:12.270Z,3.03
2018-05-09T16:37:40.528Z,2.93
2018-05-09T16:40:08.826Z,3.20
2018-05-09T16:42:37.096Z,4.47
2018-05-09T16:45:05.338Z,4.07
2018-05-09T16:47:34.896Z,5.00
2018-05-09T16:50:03.137Z,4.03
2018-05-09T16:52:31.397Z,3.47
2018-05-09T16:54:59.702Z,2.97
2018-05-09T16:57:27.973Z,3.27
2018-05-09T16:59:56.251Z,3.00
2018-05-09T17:02:24.503Z,3.43
2018-05-09T17:04:52.804Z,3.77
2018-05-09T17:07:21.147Z,3.23
2018-05-09T17:09:49.370Z,3.57
2018-05-09T17:12:17.612Z,3.80
2018-05-09T17:14:45.913Z,3.63
2018-05-09T17:17:14.153Z,3.60
2018-05-09T17:19:42.409Z,4.30
2018-05-09T17:22:27.642Z,3.53
2018-05-09T17:24:55.907Z,3.23
2018-05-09T17:27:24.221Z,3.33
2018-05-09T17:29:52.448Z,3.13
2018-05-09T17:32:20.740Z,3.60
2018-05-09T17:34:49.018Z,3.20
2018-05-09T17:37:17.898Z,3.30
2018-05-09T17:39:46.222Z,3.43
2018-05-09T17:42:14.393Z,3.60
2018-05-09T17:44:42.724Z,2.83
2018-05-09T17:47:10.968Z,3.30
2018-05-09T17:49:39.994Z,3.30
2018-05-09T17:52:08.278Z,3.50
2018-05-09T17:54:36.548Z,3.43
2018-05-09T17:57:04.816Z,3.40
2018-05-09T17:59:33.071Z,3.57
2018-05-09T18:02:01.313Z,3.40
2018-05-09T18:04:29.649Z,3.67
2018-05-09T18:06:57.888Z,3.10
2018-05-09T18:09:26.914Z,3.40
2018-05-09T18:11:55.188Z,3.40
2018-05-09T18:14:23.469Z,3.53
2018-05-09T18:16:51.716Z,9.23
2018-05-09T18:19:19.972Z,5.97
2018-05-09T18:21:48.989Z,3.60
2018-05-09T18:24:17.249Z,4.13
2018-05-09T18:26:46.344Z,4.23
2018-05-09T18:29:14.553Z,3.80
2018-05-09T18:31:42.829Z,4.10
2018-05-09T18:34:11.100Z,4.20
2018-05-09T18:36:39.357Z,4.30
2018-05-09T18:39:07.650Z,4.07
2018-05-09T18:41:35.924Z,3.90
2018-05-09T18:44:04.228Z,3.83
2018-05-09T18:46:32.457Z,4.30
2018-05-09T18:49:00.707Z,4.10
2018-05-09T18:51:29.725Z,4.23
2018-05-09T18:53:58.021Z,4.17
2018-05-09T18:56:26.271Z,3.97
2018-05-09T18:58:55.473Z,4.27
2018-05-09T19:01:23.770Z,4.23
2018-05-09T19:03:52.021Z,4.27
2018-05-09T19:06:21.296Z,3.93
2018-05-09T19:08:49.516Z,4.17
2018-05-09T19:11:18.294Z,4.63
2018-05-09T19:13:46.593Z,4.40
2018-05-09T19:16:14.861Z,4.07
2018-05-09T19:18:45.852Z,4.37
2018-05-09T19:21:14.084Z,6.37
2018-05-09T19:23:42.325Z,6.63
2018-05-09T19:26:10.625Z,6.43
2018-05-09T19:28:38.900Z,5.20
2018-05-09T19:31:07.138Z,5.03
2018-05-09T19:33:36.189Z,5.20
2018-05-09T19:36:04.437Z,5.03
2018-05-09T19:38:32.769Z,5.37
2018-05-09T19:41:00.936Z,4.80
2018-05-09T19:43:29.185Z,4.73
2018-05-09T19:45:57.441Z,4.87
2018-05-09T19:48:25.693Z,4.90
2018-05-09T19:50:53.945Z,4.83
2018-05-09T19:53:22.986Z,5.50
2018-05-09T19:55:51.237Z,5.50
2018-05-09T19:58:19.572Z,5.93
2018-05-09T20:00:47.812Z,4.87
2018-05-09T20:03:16.054Z,5.77
2018-05-09T20:05:45.082Z,5.50
2018-05-09T20:08:13.330Z,6.90
2018-05-09T20:10:41.633Z,6.10
2018-05-09T20:13:09.902Z,6.37
2018-05-09T20:15:38.172Z,6.53
2018-05-09T20:18:06.421Z,6.70
2018-05-09T20:20:35.543Z,5.93
2018-05-09T20:23:03.829Z,5.93
2018-05-09T20:25:32.074Z,5.73
2018-05-09T20:28:00.381Z,5.87
2018-05-09T20:30:34.338Z,5.63
2018-05-09T20:33:03.372Z,6.03
2018-05-09T20:35:31.629Z,6.63
2018-05-09T20:37:59.924Z,6.03
2018-05-09T20:40:28.206Z,6.53
2018-05-09T20:42:56.485Z,6.30
2018-05-09T20:45:24.737Z,6.43
2018-05-09T20:47:53.130Z,6.83
2018-05-09T20:50:21.288Z,6.63
2018-05-09T20:52:49.547Z,6.40
2018-05-09T20:55:28.538Z,6.67
2018-05-09T20:57:56.788Z,5.80
2018-05-09T21:00:25.093Z,6.53
2018-05-09T21:02:53.324Z,6.53
2018-05-09T21:05:21.609Z,6.73
2018-05-09T21:07:56.492Z,6.53
2018-05-09T21:10:25.535Z,6.80
2018-05-09T21:12:53.797Z,6.03
2018-05-09T21:15:22.101Z,6.83
2018-05-09T21:17:50.361Z,7.00
2018-05-09T21:20:18.608Z,6.80
2018-05-09T21:22:46.914Z,6.87
2018-05-09T21:25:15.397Z,7.50
2018-05-09T21:27:43.645Z,7.37
2018-05-09T21:30:12.654Z,7.20
2018-05-09T21:32:40.933Z,7.33
2018-05-09T21:35:09.193Z,7.50
2018-05-09T21:37:37.440Z,6.90
2018-05-09T21:40:06.460Z,7.30
2018-05-09T21:42:34.704Z,7.37
2018-05-09T21:45:03.759Z,7.13
2018-05-09T21:47:32.029Z,7.83
2018-05-09T21:50:00.280Z,7.60
2018-05-09T21:52:28.582Z,7.23
2018-05-09T21:54:57.184Z,7.97
2018-05-09T21:57:25.440Z,7.87
2018-05-09T21:59:53.696Z,8.13
2018-05-09T22:02:21.940Z,8.27
2018-05-09T22:04:50.973Z,7.57
2018-05-09T22:07:20.423Z,7.80
2018-05-09T22:09:48.654Z,7.80
2018-05-09T22:12:16.926Z,7.93
2018-05-09T22:14:45.218Z,7.73
2018-05-09T22:17:13.481Z,7.93
2018-05-09T22:19:41.759Z,7.70
2018-05-09T22:22:10.034Z,7.77
2018-05-09T22:24:38.300Z,7.90
2018-05-09T22:27:06.608Z,8.23
2018-05-09T22:29:34.872Z,8.13
2018-05-09T22:32:03.116Z,7.77
2018-05-09T22:34:31.404Z,8.10
2018-05-09T22:36:59.640Z,8.43
2018-05-09T22:39:28.691Z,8.80
2018-05-09T22:41:56.966Z,8.07
2018-05-09T22:44:25.329Z,8.60
2018-05-09T22:46:53.575Z,8.87
2018-05-09T22:49:21.872Z,8.83
2018-05-09T22:51:50.152Z,8.70
2018-05-09T22:54:18.413Z,8.73
2018-05-09T22:56:46.700Z,8.63
2018-05-09T22:59:14.975Z,8.70
2018-05-09T23:01:43.257Z,10.33
2018-05-09T23:04:11.521Z,10.13
2018-05-09T23:06:39.822Z,9.13
2018-05-09T23:09:08.073Z,9.53
2018-05-09T23:11:36.333Z,9.80
2018-05-09T23:14:04.633Z,9.47
2018-05-09T23:16:32.893Z,8.23
2018-05-09T23:19:01.154Z,9.20
2018-05-09T23:21:29.408Z,9.73
2018-05-09T23:23:58.446Z,9.27
2018-05-09T23:26:26.708Z,9.43
2018-05-09T23:28:54.952Z,9.33
2018-05-09T23:31:23.997Z,9.60
2018-05-09T23:33:52.240Z,9.27
2018-05-09T23:36:20.545Z,9.43
2018-05-09T23:38:48.829Z,9.77
2018-05-09T23:41:17.090Z,8.73
2018-05-09T23:43:45.378Z,9.13
2018-05-09T23:46:13.642Z,9.13
2018-05-09T23:48:41.924Z,9.13
2018-05-09T23:51:10.184Z,9.37
2018-05-09T23:53:38.476Z,9.97
2018-05-09T23:56:06.765Z,9.67
2018-05-09T23:58:35.017Z,9.37
